Time;durP1;ratioP1;P1;durP2;ratioP2;P2;SDS_P1;SDS_P2;PMS_P1;PMS_P2;Temp;Humidity;BMP_temperature;BMP_pressure;BME280_temperature;BME280_humidity;BME280_pressure;Samples;Min_cycle;Max_cycle;Signal;HPM_P1;HPM_P2
2022/12/11 09:21:54;;;;;;;23.65;10.60;;;;;;;12.94;37.88;95831.53;2084277;28;20556;-53
2022/12/11 09:22:56;;;;;;;19.48;10.43;;;;;;;11.17;40.19;95823.47;2073345;28;20201;-54
2022/12/11 09:23:59;;;;;;;19.65;10.77;;;;;;;10.29;41.10;95829.38;2074119;28;20261;-54
2022/12/11 09:25:00;;;;;;;22.52;10.90;;;;;;;10.64;42.40;95836.16;2081548;28;20208;-54
2022/12/11 09:26:04;;;;;;;25.65;11.00;;;;;;;12.46;39.14;95825.06;2082263;28;20207;-54
2022/12/11 09:27:06;;;;;;;17.88;10.88;;;;;;;14.30;36.21;95838.75;2074167;28;20554;-54
2022/12/11 09:28:07;;;;;;;20.17;10.50;;;;;;;14.44;35.85;95829.88;2073493;28;20292;-54
2022/12/11 09:29:09;;;;;;;20.85;10.05;;;;;;;14.92;34.48;95820.28;2070236;28;20284;-54
2022/12/11 09:30:12;;;;;;;21.75;11.13;;;;;;;15.13;34.56;95829.16;2070097;28;20229;-54
2022/12/11 09:31:16;;;;;;;17.73;10.50;;;;;;;14.88;34.18;95830.19;2089464;28;20192;-54
2022/12/11 09:32:18;;;;;;;19.30;11.57;;;;;;;14.44;34.56;95826.41;2088359;28;20301;-59
2022/12/11 09:33:19;;;;;;;17.27;10.63;;;;;;;15.26;34.47;95836.97;2071865;28;20559;-57
2022/12/11 09:34:21;;;;;;;42.60;23.25;;;;;;;14.80;33.90;95833.38;2088184;28;20690;-57
2022/12/11 09:35:29;;;;;;;31.67;17.38;;;;;;;15.63;33.05;95828.00;2086416;28;20200;-59
2022/12/11 09:36:31;;;;;;;302.55;176.77;;;;;;;15.70;33.46;95826.59;2072570;28;20779;-64
2022/12/11 09:37:33;;;;;;;20.15;12.40;;;;;;;14.90;33.78;95830.91;2074753;28;20248;-63
2022/12/11 09:38:35;;;;;;;24.25;11.10;;;;;;;15.64;33.15;95824.44;2073835;28;20229;-63
2022/12/11 09:39:36;;;;;;;23.92;12.13;;;;;;;15.44;32.76;95825.97;2072918;28;20223;-63
2022/12/11 09:40:42;;;;;;;18.77;11.77;;;;;;;15.35;33.15;95832.81;2073796;28;20225;-64
2022/12/11 09:42:10;;;;;;;18.63;12.00;;;;;;;15.52;32.58;95818.34;2071419;28;20700;-63
2022/12/11 09:43:42;;;;;;;19.95;11.60;;;;;;;14.63;33.01;95839.03;2073437;28;20227;-63
2022/12/11 09:44:53;;;;;;;25.10;14.63;;;;;;;15.35;32.99;95838.06;2074836;28;20209;-63
2022/12/11 09:45:55;;;;;;;30.45;15.48;;;;;;;14.05;34.16;95837.06;2076321;28;20200;-63
2022/12/11 09:46:57;;;;;;;25.65;14.40;;;;;;;13.64;34.96;95836.41;2069733;28;20685;-63
2022/12/11 09:48:00;;;;;;;22.38;14.52;;;;;;;13.55;35.19;95840.50;2071478;28;20372;-63
2022/12/11 09:49:08;;;;;;;24.50;13.98;;;;;;;14.01;34.86;95839.06;2073458;28;20197;-63
2022/12/11 09:50:09;;;;;;;20.70;12.45;;;;;;;14.84;33.99;95837.47;2073479;28;20682;-63
2022/12/11 09:51:42;;;;;;;19.02;10.88;;;;;;;12.41;35.23;95835.81;2072032;28;20201;-63
2022/12/11 09:53:10;;;;;;;20.80;11.52;;;;;;;11.35;38.11;95835.44;2073781;28;20236;-63
2022/12/11 09:54:13;;;;;;;21.33;11.48;;;;;;;9.66;40.49;95832.84;2073646;28;20586;-62
2022/12/11 09:55:24;;;;;;;24.33;12.90;;;;;;;7.55;44.57;95830.16;2072638;28;20213;-63
2022/12/11 09:56:34;;;;;;;18.98;12.05;;;;;;;6.44;47.14;95832.38;2069971;28;20205;-62
2022/12/11 09:57:39;;;;;;;26.13;12.82;;;;;;;5.03;49.68;95835.13;2071713;28;20232;-62
2022/12/11 09:59:05;;;;;;;23.20;12.80;;;;;;;4.23;52.34;95836.09;2070283;28;20664;-62
2022/12/11 10:00:36;;;;;;;21.45;11.93;;;;;;;3.69;54.47;95832.59;2071904;28;20284;-62
2022/12/11 10:01:46;;;;;;;19.38;10.98;;;;;;;2.69;56.85;95834.56;2074031;28;20217;-62
2022/12/11 10:03:06;;;;;;;22.88;12.60;;;;;;;2.67;57.92;95835.47;2074100;28;20241;-62
2022/12/11 10:04:34;;;;;;;22.25;11.88;;;;;;;2.41;59.31;95827.53;2073632;28;20208;-62
2022/12/11 10:05:56;;;;;;;21.38;11.70;;;;;;;2.68;58.18;95834.56;2073603;28;20205;-62
2022/12/11 10:07:14;;;;;;;21.38;12.38;;;;;;;1.75;60.94;95835.13;2072603;28;20229;-62
2022/12/11 10:08:19;;;;;;;21.20;12.88;;;;;;;1.71;61.65;95832.63;2074484;28;20208;-61
2022/12/11 10:09:46;;;;;;;19.58;10.30;;;;;;;2.23;61.17;95830.56;2073790;28;20197;-61
2022/12/11 10:10:50;;;;;;;16.80;10.32;;;;;;;1.79;62.09;95831.59;2089431;28;20703;-61
2022/12/11 10:12:16;;;;;;;19.15;9.82;;;;;;;1.60;62.28;95820.88;2086746;28;20220;-61
2022/12/11 10:13:59;;;;;;;24.40;10.27;;;;;;;2.18;60.91;95816.94;2073378;28;20259;-61
2022/12/11 10:15:13;;;;;;;19.23;8.88;;;;;;;2.29;60.86;95815.78;2073948;28;20327;-62
2022/12/11 10:16:34;;;;;;;16.10;8.40;;;;;;;2.40;60.74;95815.53;2073223;28;20250;-62
2022/12/11 10:17:37;;;;;;;17.13;9.40;;;;;;;2.19;60.59;95809.19;2074546;28;20227;-61
2022/12/11 10:18:40;;;;;;;17.98;10.07;;;;;;;1.79;61.40;95817.84;2072786;28;20723;-61
2022/12/11 10:19:41;;;;;;;17.52;10.52;;;;;;;1.71;62.70;95806.91;2073976;28;20208;-62
2022/12/11 10:20:49;;;;;;;19.77;10.02;;;;;;;1.99;62.80;95809.66;2073905;28;20664;-62
2022/12/11 10:21:51;;;;;;;16.65;8.77;;;;;;;2.36;60.29;95807.91;2072760;28;20264;-61
2022/12/11 10:22:55;;;;;;;15.63;8.77;;;;;;;1.91;61.51;95811.59;2069799;28;20289;-62
2022/12/11 10:24:04;;;;;;;15.55;8.43;;;;;;;1.99;61.18;95803.69;2074405;28;20636;-62
2022/12/11 10:25:07;;;;;;;13.20;7.80;;;;;;;1.98;62.15;95799.41;2072046;28;20276;-61
2022/12/11 10:26:24;;;;;;;15.10;8.27;;;;;;;1.53;62.77;95806.44;2071640;28;20201;-61
2022/12/11 10:27:31;;;;;;;15.57;8.30;;;;;;;1.18;63.20;95802.91;2070565;28;20225;-61
2022/12/11 10:28:33;;;;;;;19.00;7.53;;;;;;;1.18;63.81;95808.06;2073948;28;20206;-61
2022/12/11 10:29:35;;;;;;;19.73;9.27;;;;;;;1.44;64.22;95798.94;2074906;28;20859;-62
2022/12/11 10:30:39;;;;;;;16.15;8.73;;;;;;;1.22;64.01;95783.09;2074023;28;20209;-61
2022/12/11 10:31:47;;;;;;;13.85;7.70;;;;;;;1.36;64.31;95800.81;2073594;28;20240;-61
2022/12/11 10:32:53;;;;;;;17.65;8.55;;;;;;;1.46;63.48;95795.44;2070279;28;20226;-61
2022/12/11 10:34:11;;;;;;;16.92;9.02;;;;;;;1.62;63.98;95802.81;2067288;28;20232;-62
2022/12/11 10:35:44;;;;;;;19.50;9.95;;;;;;;1.30;63.99;95804.38;2067199;28;20379;-62
2022/12/11 10:36:45;;;;;;;18.45;8.80;;;;;;;1.67;63.92;95793.25;2067935;28;20578;-61
2022/12/11 10:37:47;;;;;;;24.10;8.90;;;;;;;1.86;63.33;95793.66;2067548;28;20664;-62
2022/12/11 10:38:49;;;;;;;18.60;9.80;;;;;;;2.15;62.97;95797.25;2067667;28;20296;-62
2022/12/11 10:39:53;;;;;;;18.20;9.07;;;;;;;2.19;62.32;95792.88;2068387;28;20228;-61
2022/12/11 10:40:58;;;;;;;16.73;9.82;;;;;;;2.04;61.72;95776.91;2067795;28;20264;-62
2022/12/11 10:42:11;;;;;;;17.77;8.90;;;;;;;2.02;62.86;95790.72;2063659;28;20222;-62
2022/12/11 10:43:13;;;;;;;17.50;9.32;;;;;;;2.05;62.18;95786.34;2066849;28;20238;-62
2022/12/11 10:44:17;;;;;;;22.63;9.18;;;;;;;2.00;63.45;95783.03;2069248;28;20292;-63
2022/12/11 10:45:18;;;;;;;22.92;9.38;;;;;;;1.85;63.30;95778.25;2064414;28;20681;-62
2022/12/11 10:46:22;;;;;;;14.52;8.02;;;;;;;1.86;63.45;95790.25;2065398;28;20206;-62
2022/12/11 10:47:24;;;;;;;17.08;8.65;;;;;;;2.14;63.06;95782.69;2068209;28;20634;-62
2022/12/11 10:48:29;;;;;;;22.10;8.55;;;;;;;2.07;63.44;95776.84;2069638;28;20243;-62
2022/12/11 10:49:33;;;;;;;13.95;7.75;;;;;;;2.00;63.81;95771.91;2067233;28;21048;-62
2022/12/11 10:50:35;;;;;;;15.10;7.65;;;;;;;1.86;63.69;95779.97;2067118;28;20221;-62
2022/12/11 10:51:37;;;;;;;15.70;8.63;;;;;;;2.04;63.43;95776.06;2068244;28;20202;-63
2022/12/11 10:52:43;;;;;;;17.98;7.57;;;;;;;2.10;62.26;95774.19;2067266;28;20679;-62
2022/12/11 10:53:56;;;;;;;16.48;8.50;;;;;;;1.78;63.83;95770.69;2068202;28;20193;-62
2022/12/11 10:55:01;;;;;;;16.70;7.80;;;;;;;2.15;64.21;95776.66;2067153;28;20197;-63
2022/12/11 10:56:03;;;;;;;14.52;8.10;;;;;;;1.83;64.58;95756.84;2067059;28;20198;-62
2022/12/11 10:57:07;;;;;;;17.02;9.18;;;;;;;1.93;65.67;95769.47;2065056;28;20218;-62
2022/12/11 10:58:18;;;;;;;18.05;8.82;;;;;;;2.14;64.85;95771.56;2066577;28;20250;-62
2022/12/11 10:59:23;;;;;;;16.77;9.02;;;;;;;1.67;65.79;95774.41;2068684;28;20202;-62
2022/12/11 11:00:37;;;;;;;15.57;8.65;;;;;;;1.52;65.63;95770.44;2067837;28;20255;-62
2022/12/11 11:01:39;;;;;;;16.10;7.93;;;;;;;1.51;66.03;95769.63;2067606;28;20708;-58
2022/12/11 11:02:44;;;;;;;18.33;9.15;;;;;;;1.25;66.48;95768.44;2067814;28;20256;-63
2022/12/11 11:03:52;;;;;;;14.90;7.93;;;;;;;1.37;66.05;95776.78;2067963;28;20198;-63
2022/12/11 11:04:55;;;;;;;16.52;8.40;;;;;;;1.29;66.06;95776.94;2068343;28;20312;-63
2022/12/11 11:06:18;;;;;;;14.10;8.02;;;;;;;1.42;65.46;95767.22;2068886;28;20197;-63
2022/12/11 11:07:28;;;;;;;14.75;7.78;;;;;;;1.22;65.29;95759.94;2067858;28;20772;-63
2022/12/11 11:08:41;;;;;;;19.65;8.70;;;;;;;1.14;66.50;95768.69;2068268;28;20575;-63
2022/12/11 11:09:43;;;;;;;15.43;7.93;;;;;;;1.19;65.31;95763.44;2068655;28;20804;-63
2022/12/11 11:10:56;;;;;;;17.25;7.60;;;;;;;1.01;65.80;95753.56;2064136;28;20214;-63
2022/12/11 11:11:57;;;;;;;16.20;8.57;;;;;;;1.09;66.17;95756.81;2066125;28;20230;-63
2022/12/11 11:13:04;;;;;;;16.90;8.10;;;;;;;1.06;66.22;95762.84;2068126;28;20205;-63
2022/12/11 11:14:08;;;;;;;15.57;7.85;;;;;;;1.36;66.72;95760.50;2065690;28;20230;-63
2022/12/11 11:15:10;;;;;;;16.17;8.38;;;;;;;1.61;66.29;95767.66;2068088;28;20206;-63
2022/12/11 11:16:16;;;;;;;16.25;9.05;;;;;;;1.51;65.52;95764.47;2064325;28;20202;-63
2022/12/11 11:17:18;;;;;;;17.73;8.00;;;;;;;1.51;66.28;95769.63;2064412;28;20226;-64
2022/12/11 11:18:25;;;;;;;16.95;7.30;;;;;;;1.67;66.34;95766.69;2067867;28;20233;-63
2022/12/11 11:19:33;;;;;;;14.20;7.43;;;;;;;1.49;66.53;95763.66;2064101;28;20202;-63
2022/12/11 11:20:35;;;;;;;15.35;8.43;;;;;;;1.35;65.95;95756.25;2066474;28;20708;-63
2022/12/11 11:21:36;;;;;;;16.98;9.23;;;;;;;1.11;66.92;95762.78;2068114;28;20292;-63
2022/12/11 11:22:44;;;;;;;17.27;8.00;;;;;;;1.06;67.18;95736.31;2081002;28;20233;-63
2022/12/11 11:23:45;;;;;;;16.40;8.40;;;;;;;1.05;67.49;95768.03;2081187;28;20232;-63
2022/12/11 11:24:57;;;;;;;18.20;8.55;;;;;;;1.14;67.69;95753.25;2067277;28;20351;-63
2022/12/11 11:26:00;;;;;;;17.27;8.35;;;;;;;1.09;67.85;95762.81;2068200;28;20198;-63
2022/12/11 11:27:11;;;;;;;14.90;8.35;;;;;;;0.92;68.07;95765.72;2067060;28;20222;-64
2022/12/11 11:28:20;;;;;;;15.18;8.30;;;;;;;0.89;68.86;95767.50;2067147;28;20217;-63
2022/12/11 11:29:33;;;;;;;18.05;9.18;;;;;;;1.00;68.52;95760.41;2067419;28;20288;-63
2022/12/11 11:30:37;;;;;;;16.90;8.48;;;;;;;1.19;68.62;95753.16;2068699;28;20240;-63
2022/12/11 11:31:38;;;;;;;16.75;8.25;;;;;;;1.40;67.50;95756.16;2066081;28;20689;-58
2022/12/11 11:32:40;;;;;;;20.38;9.57;;;;;;;1.36;66.88;95754.50;2068854;28;20198;-63
2022/12/11 11:34:04;;;;;;;18.50;9.38;;;;;;;1.32;67.22;95753.75;2067956;28;20258;-63
2022/12/11 11:35:10;;;;;;;16.88;8.98;;;;;;;1.55;66.42;95762.63;2067744;28;20210;-63
2022/12/11 11:36:29;;;;;;;16.48;9.27;;;;;;;1.48;66.27;95755.97;2069056;28;20210;-63
2022/12/11 11:37:33;;;;;;;16.33;9.27;;;;;;;1.42;67.01;95756.94;2068012;28;20221;-63
2022/12/11 11:38:40;;;;;;;19.35;9.20;;;;;;;1.42;67.52;95755.22;2064048;28;20249;-62
2022/12/11 11:39:44;;;;;;;17.15;9.18;;;;;;;1.40;67.62;95763.88;2065270;28;20193;-63
2022/12/11 11:41:16;;;;;;;18.95;9.38;;;;;;;1.34;68.00;95743.41;2067164;28;20194;-63
2022/12/11 11:42:26;;;;;;;19.02;9.90;;;;;;;1.33;67.90;95746.84;2068534;28;20264;-63
2022/12/11 11:43:39;;;;;;;19.52;9.93;;;;;;;1.41;67.72;95747.53;2067659;28;20205;-63
2022/12/11 11:45:01;;;;;;;16.83;9.10;;;;;;;1.67;67.45;95748.66;2067777;28;20245;-63
2022/12/11 11:46:21;;;;;;;17.63;9.57;;;;;;;1.29;68.12;95725.50;2066786;28;20205;-63
2022/12/11 11:47:26;;;;;;;17.48;8.68;;;;;;;1.42;68.21;95744.94;2067065;28;20226;-64
2022/12/11 11:48:49;;;;;;;18.55;9.98;;;;;;;1.36;68.38;95745.06;2068118;28;20292;-64
2022/12/11 11:50:11;;;;;;;19.33;10.85;;;;;;;1.21;68.68;95730.00;2067192;28;20238;-63
2022/12/11 11:51:21;;;;;;;22.65;9.60;;;;;;;1.37;68.69;95733.03;2065501;28;20202;-63
2022/12/11 11:52:40;;;;;;;18.95;10.40;;;;;;;1.12;69.38;95742.16;2066698;28;20261;-64
2022/12/11 11:53:48;;;;;;;16.05;9.57;;;;;;;1.23;68.75;95747.06;2063889;28;20198;-64
2022/12/11 11:55:08;;;;;;;21.30;9.65;;;;;;;1.32;68.72;95747.72;2065647;28;20332;-64
2022/12/11 11:56:30;;;;;;;20.05;9.57;;;;;;;1.42;68.10;95742.38;2067439;28;20206;-64
2022/12/11 11:57:42;;;;;;;16.63;8.48;;;;;;;1.30;67.90;95743.47;2066311;28;20221;-63
2022/12/11 11:58:55;;;;;;;19.58;9.52;;;;;;;1.58;66.96;95745.41;2065917;28;20234;-64
2022/12/11 12:00:09;;;;;;;15.35;8.90;;;;;;;1.18;67.66;95737.75;2079514;28;20656;-64
2022/12/11 12:01:16;;;;;;;20.30;10.70;;;;;;;0.95;68.41;95746.81;2077953;28;20585;-63
2022/12/11 12:02:18;;;;;;;20.17;10.60;;;;;;;0.78;68.86;95742.88;2067619;28;20420;-64
2022/12/11 12:03:22;;;;;;;16.85;10.88;;;;;;;0.74;69.29;95741.25;2067210;28;20823;-64
2022/12/11 12:04:33;;;;;;;20.52;10.57;;;;;;;0.86;69.45;95734.16;2066298;28;20202;-64
2022/12/11 12:05:49;;;;;;;19.95;9.70;;;;;;;0.98;69.22;95744.19;2067651;28;20229;-64
2022/12/11 12:07:12;;;;;;;20.42;10.07;;;;;;;0.72;69.26;95742.16;2066281;28;20281;-63
2022/12/11 12:08:57;;;;;;;23.90;11.25;;;;;;;0.45;69.82;95747.78;2065873;28;20305;-63
2022/12/11 12:10:20;;;;;;;22.02;10.95;;;;;;;0.04;71.61;95746.84;2068133;28;20230;-64
2022/12/11 12:11:48;;;;;;;23.42;11.82;;;;;;;0.13;72.31;95745.84;2067858;28;20201;-63
2022/12/11 12:13:21;;;;;;;18.98;10.02;;;;;;;-0.08;72.16;95747.06;2067114;28;20202;-63
2022/12/11 12:15:05;;;;;;;25.85;11.88;;;;;;;0.01;73.21;95748.63;2067719;28;20201;-63
2022/12/11 12:16:15;;;;;;;20.83;10.50;;;;;;;0.01;72.76;95743.50;2067964;28;20198;-63
2022/12/11 12:18:03;;;;;;;17.90;10.38;;;;;;;0.02;72.96;95751.16;2066810;28;20252;-64
2022/12/11 12:19:34;;;;;;;24.15;10.75;;;;;;;-0.30;73.40;95751.72;2067642;28;20335;-63
2022/12/11 12:21:09;;;;;;;21.92;10.85;;;;;;;-0.33;74.08;95739.78;2064180;28;20234;-63
2022/12/11 12:22:18;;;;;;;25.60;12.60;;;;;;;-0.53;74.11;95752.91;2063416;28;20227;-64
2022/12/11 12:23:41;;;;;;;33.15;10.60;;;;;;;-0.44;74.85;95744.25;2066943;28;20234;-63
2022/12/11 12:25:08;;;;;;;21.58;12.07;;;;;;;-0.47;73.60;95723.75;2067470;28;20447;-63
2022/12/11 12:26:25;;;;;;;25.60;11.52;;;;;;;-0.53;74.13;95743.50;2067825;28;20202;-64
2022/12/11 12:27:43;;;;;;;20.45;10.98;;;;;;;-0.37;74.49;95740.69;2063246;28;20226;-64
2022/12/11 12:29:08;;;;;;;21.38;11.60;;;;;;;-0.34;74.26;95743.22;2066107;28;20204;-63
2022/12/11 12:30:17;;;;;;;26.42;11.65;;;;;;;-0.30;73.96;95726.06;2065673;28;20678;-64
2022/12/11 12:31:39;;;;;;;25.92;13.07;;;;;;;-0.24;73.98;95736.19;2067287;28;20655;-66
2022/12/11 12:32:59;;;;;;;19.38;10.20;;;;;;;-0.14;73.46;95734.31;2065614;28;20764;-64
2022/12/11 12:34:38;;;;;;;21.77;11.45;;;;;;;-0.18;73.77;95733.53;2066946;28;20233;-64
2022/12/11 12:35:59;;;;;;;21.17;10.38;;;;;;;-0.21;74.08;95734.41;2069015;28;20232;-64
2022/12/11 12:37:25;;;;;;;30.90;11.30;;;;;;;-0.41;74.15;95721.09;2066055;28;20222;-64
2022/12/11 12:38:51;;;;;;;24.23;12.55;;;;;;;-0.27;74.01;95723.44;2066240;28;20322;-64
2022/12/11 12:40:10;;;;;;;22.65;12.30;;;;;;;-0.19;73.96;95717.28;2067761;28;20643;-64
2022/12/11 12:41:52;;;;;;;25.65;11.13;;;;;;;0.02;73.66;95717.78;2068248;28;20202;-64
2022/12/11 12:43:15;;;;;;;29.15;14.82;;;;;;;0.11;73.25;95720.16;2064963;28;20257;-64
2022/12/11 12:44:19;;;;;;;34.90;15.82;;;;;;;-0.13;73.42;95679.56;2068056;28;20265;-65
2022/12/11 12:45:46;;;;;;;25.50;13.30;;;;;;;0.19;73.32;95709.78;2063569;28;20562;-64
2022/12/11 12:47:23;;;;;;;26.05;13.15;;;;;;;0.26;73.21;95721.63;2064204;28;20195;-65
2022/12/11 12:48:26;;;;;;;24.27;12.25;;;;;;;0.29;73.13;95723.28;2050035;28;20294;-65
2022/12/11 12:49:33;;;;;;;24.05;12.68;;;;;;;0.29;73.96;95721.56;2064362;28;20199;-65
2022/12/11 12:50:42;;;;;;;29.63;12.65;;;;;;;0.47;73.73;95722.06;2067038;28;21001;-64
2022/12/11 12:51:45;;;;;;;23.17;11.48;;;;;;;0.46;74.44;95717.84;2066241;28;20221;-64
2022/12/11 12:52:48;;;;;;;26.48;13.57;;;;;;;0.28;74.58;95711.31;2067347;28;20213;-65
2022/12/11 12:53:55;;;;;;;26.77;13.25;;;;;;;0.31;74.76;95718.97;2067138;28;20232;-65
2022/12/11 12:55:17;;;;;;;27.10;12.75;;;;;;;0.28;74.83;95693.31;2068199;28;20202;-65
2022/12/11 12:56:20;;;;;;;26.98;12.48;;;;;;;0.54;74.85;95710.81;2067435;28;20666;-65
2022/12/11 12:57:22;;;;;;;23.20;12.70;;;;;;;0.54;74.32;95709.97;2066218;28;20312;-65
2022/12/11 12:58:26;;;;;;;23.60;12.60;;;;;;;0.65;74.27;95715.75;2065868;28;20194;-64
2022/12/11 12:59:27;;;;;;;23.80;13.20;;;;;;;0.71;74.04;95709.63;2065842;28;20222;-65
2022/12/11 13:00:37;;;;;;;23.83;11.90;;;;;;;0.71;73.71;95717.31;2065278;28;20249;-65
2022/12/11 13:01:39;;;;;;;28.60;15.35;;;;;;;0.74;73.84;95709.56;2065193;28;20198;-63
2022/12/11 13:02:49;;;;;;;28.15;15.07;;;;;;;0.60;73.36;95722.69;2067716;28;20702;-65
2022/12/11 13:04:01;;;;;;;28.73;14.93;;;;;;;0.43;74.17;95707.59;2066896;28;20606;-65
2022/12/11 13:05:38;;;;;;;27.40;14.32;;;;;;;0.57;73.77;95718.47;2065384;28;20198;-65
2022/12/11 13:06:41;;;;;;;28.33;13.60;;;;;;;0.36;74.13;95703.47;2066563;28;20292;-64
2022/12/11 13:07:50;;;;;;;23.45;12.88;;;;;;;0.51;74.93;95716.03;2066657;28;20201;-65
2022/12/11 13:08:55;;;;;;;26.20;13.35;;;;;;;0.43;75.02;95720.44;2066489;28;20293;-65
2022/12/11 13:10:07;;;;;;;24.00;12.98;;;;;;;0.29;75.70;95718.13;2068624;28;20225;-65
2022/12/11 13:11:11;;;;;;;23.05;13.27;;;;;;;0.18;75.89;95720.94;2067510;28;20218;-64
2022/12/11 13:12:30;;;;;;;28.67;13.68;;;;;;;0.07;76.70;95722.84;2066182;28;20728;-65
2022/12/11 13:13:36;;;;;;;27.20;14.25;;;;;;;0.00;77.18;95727.25;2067275;28;20209;-65
2022/12/11 13:14:37;;;;;;;26.58;14.18;;;;;;;-0.17;77.38;95714.69;2066292;28;20202;-64
2022/12/11 13:15:44;;;;;;;27.42;13.70;;;;;;;-0.24;78.13;95725.94;2064464;28;20198;-64
2022/12/11 13:16:47;;;;;;;25.05;13.50;;;;;;;-0.30;78.17;95719.19;2065677;28;20218;-64
2022/12/11 13:17:49;;;;;;;31.42;14.70;;;;;;;-0.35;78.41;95714.13;2065663;28;20287;-65
2022/12/11 13:18:51;;;;;;;23.20;12.80;;;;;;;-0.40;78.96;95720.22;2067138;28;20199;-64
2022/12/11 13:20:11;;;;;;;27.00;15.10;;;;;;;-0.32;78.51;95726.06;2067349;28;20248;-65
2022/12/11 13:21:39;;;;;;;28.15;12.95;;;;;;;-0.22;78.47;95724.19;2067201;28;20248;-64
2022/12/11 13:23:14;;;;;;;26.27;14.80;;;;;;;-0.32;78.84;95708.09;2066670;28;20226;-65
2022/12/11 13:24:18;;;;;;;25.13;13.35;;;;;;;-0.43;78.94;95718.56;2065744;28;20217;-65
2022/12/11 13:25:28;;;;;;;30.33;14.45;;;;;;;-0.44;78.86;95721.97;2067344;28;20554;-64
2022/12/11 13:26:31;;;;;;;24.20;12.88;;;;;;;-0.47;79.34;95719.47;2068400;28;20211;-64
2022/12/11 13:27:42;;;;;;;28.45;14.82;;;;;;;-0.42;78.59;95721.94;2068375;28;20986;-64
2022/12/11 13:28:43;;;;;;;22.70;12.63;;;;;;;-0.35;78.03;95715.84;2063335;28;20863;-64
2022/12/11 13:29:45;;;;;;;37.95;13.82;;;;;;;-0.38;78.41;95710.75;2064244;28;20265;-64
2022/12/11 13:31:14;;;;;;;24.15;14.00;;;;;;;-0.53;78.85;95722.13;2067607;28;20906;-64
2022/12/11 13:32:16;;;;;;;25.13;12.93;;;;;;;-0.58;78.81;95718.81;2081683;28;20227;-64
2022/12/11 13:44:37;;;;;;;26.35;14.75;;;;;;;-0.35;79.28;95731.25;2105781;27;20349;-63
2022/12/11 13:45:41;;;;;;;28.65;14.55;;;;;;;0.01;78.14;95733.22;2107560;28;20664;-63
